createdAt,value
2023-01-21T00:01:09.090Z,95235.03
2023-01-21T00:03:36.798Z,95234.22
2023-01-21T00:06:05.235Z,95241.22
2023-01-21T00:08:33.178Z,95242.88
2023-01-21T00:11:06.034Z,95237.81
2023-01-21T00:13:36.202Z,95241.38
2023-01-21T00:16:04.965Z,95239.59
2023-01-21T00:18:33.010Z,95242.34
2023-01-21T00:21:01.104Z,95242.34
2023-01-21T00:23:28.879Z,95239.75
2023-01-21T00:26:00.467Z,95237.94
2023-01-21T00:28:29.440Z,95239.75
2023-01-21T00:31:03.361Z,95237.13
2023-01-21T00:33:32.209Z,95235.31
2023-01-21T00:36:04.976Z,95234.53
2023-01-21T00:38:33.266Z,95244.97
2023-01-21T00:41:02.343Z,95244.13
2023-01-21T00:43:30.791Z,95236.31
2023-01-21T00:45:58.661Z,95240.53
2023-01-21T00:48:28.734Z,95248.38
2023-01-21T00:51:00.412Z,95242.34
2023-01-21T00:53:28.580Z,95254.44
2023-01-21T00:56:00.083Z,95250.19
2023-01-21T00:58:28.077Z,95253.59
2023-01-21T01:01:02.152Z,95258.03
2023-01-21T01:03:31.637Z,95261.44
2023-01-21T01:06:03.943Z,95255.41
2023-01-21T01:08:31.643Z,95244.13
2023-01-21T01:10:59.621Z,95260.63
2023-01-21T01:13:27.841Z,95263.25
2023-01-21T01:15:56.164Z,95265.84
2023-01-21T01:18:24.053Z,95251.97
2023-01-21T01:20:53.245Z,95261.59
2023-01-21T01:23:20.884Z,95255.53
2023-01-21T01:25:56.280Z,95269.41
2023-01-21T01:28:24.075Z,95265.97
2023-01-21T01:30:51.881Z,95263.38
2023-01-21T01:33:20.247Z,95272.19
2023-01-21T01:35:48.166Z,95271.34
2023-01-21T01:38:20.073Z,95275.59
2023-01-21T01:40:49.041Z,95271.34
2023-01-21T01:43:18.682Z,95265.97
2023-01-21T01:45:48.326Z,95272.84
2023-01-21T01:48:19.728Z,95272.84
2023-01-21T01:50:49.131Z,95268.59
2023-01-21T01:53:19.747Z,95266.81
2023-01-21T01:55:49.107Z,95268.59
2023-01-21T01:58:18.375Z,95272.03
2023-01-21T02:00:46.263Z,95272.19
2023-01-21T02:03:32.046Z,95268.59
2023-01-21T02:06:00.097Z,95274.78
2023-01-21T02:08:29.567Z,95272.97
2023-01-21T02:10:57.204Z,95271.19
2023-01-21T02:13:28.179Z,95273.81
2023-01-21T02:16:09.848Z,95275.59
2023-01-21T02:18:44.350Z,95273.97
2023-01-21T02:21:49.194Z,95269.69
2023-01-21T02:24:59.491Z,95270.53
2023-01-21T02:27:37.769Z,95268.75
2023-01-21T02:30:31.553Z,95280.00
2023-01-21T02:33:21.295Z,95273.97
2023-01-21T02:35:57.931Z,95278.34
2023-01-21T02:38:32.259Z,95270.53
2023-01-21T02:41:08.533Z,95274.78
2023-01-21T02:43:44.374Z,95272.19
2023-01-21T02:46:18.146Z,95269.56
2023-01-21T02:48:52.084Z,95277.41
2023-01-21T02:51:20.505Z,95274.91
2023-01-21T02:53:48.777Z,95274.91
2023-01-21T02:56:20.201Z,95270.53
2023-01-21T02:58:51.018Z,95274.91
2023-01-21T03:01:32.917Z,95274.13
2023-01-21T03:04:19.608Z,95274.13
2023-01-21T03:06:57.083Z,95286.34
2023-01-21T03:09:26.938Z,95277.53
2023-01-21T03:12:06.838Z,95275.75
2023-01-21T03:14:58.258Z,95271.34
2023-01-21T03:17:36.666Z,95268.75
2023-01-21T03:20:10.458Z,95270.53
2023-01-21T03:22:39.561Z,95271.50
2023-01-21T03:25:09.888Z,95269.84
2023-01-21T03:27:40.528Z,95268.06
2023-01-21T03:30:13.848Z,95270.69
2023-01-21T03:32:44.065Z,95263.81
2023-01-21T03:35:19.995Z,95271.63
2023-01-21T03:37:53.659Z,95268.06
2023-01-21T03:40:24.869Z,95266.41
2023-01-21T03:42:56.245Z,95258.59
2023-01-21T03:45:34.158Z,95260.41
2023-01-21T03:48:10.066Z,95254.34
2023-01-21T03:50:42.364Z,95261.34
2023-01-21T03:53:10.169Z,95263.81
2023-01-21T03:55:37.790Z,95262.19
2023-01-21T03:58:05.429Z,95255.97
2023-01-21T04:00:33.078Z,95258.59
2023-01-21T04:03:00.678Z,95255.19
2023-01-21T04:05:28.296Z,95259.56
2023-01-21T04:07:57.641Z,95258.59
2023-01-21T04:10:25.303Z,95256.94
2023-01-21T04:12:52.936Z,95251.72
2023-01-21T04:15:20.586Z,95256.13
2023-01-21T04:17:48.214Z,95266.56
2023-01-21T04:20:16.312Z,95257.91
2023-01-21T04:22:44.068Z,95263.97
2023-01-21T04:25:13.102Z,95263.13
2023-01-21T04:27:40.744Z,95260.50
2023-01-21T04:30:09.697Z,95263.13
2023-01-21T04:32:37.472Z,95263.97
2023-01-21T04:35:05.556Z,95264.13
2023-01-21T04:37:33.233Z,95263.97
2023-01-21T04:40:00.876Z,95268.34
2023-01-21T04:42:29.849Z,95264.91
2023-01-21T04:44:57.506Z,95268.50
2023-01-21T04:47:25.173Z,95268.34
2023-01-21T04:49:53.501Z,95281.56
2023-01-21T04:52:21.261Z,95278.78
2023-01-21T04:54:48.873Z,95279.78
2023-01-21T04:57:16.540Z,95282.38
2023-01-21T04:59:45.513Z,95277.97
2023-01-21T05:02:13.147Z,95282.38
2023-01-21T05:04:40.844Z,95277.97
2023-01-21T05:07:08.915Z,95282.38
2023-01-21T05:09:36.499Z,95280.44
2023-01-21T05:12:04.379Z,95284.00
2023-01-21T05:14:32.004Z,95284.00
2023-01-21T05:17:01.007Z,95283.06
2023-01-21T05:19:28.892Z,95288.28
2023-01-21T05:21:56.504Z,95286.50
2023-01-21T05:24:24.110Z,95282.91
2023-01-21T05:26:51.768Z,95287.28
2023-01-21T05:29:19.585Z,95282.06
2023-01-21T05:31:47.303Z,95289.78
2023-01-21T05:34:16.327Z,95282.91
2023-01-21T05:36:43.928Z,95273.28
2023-01-21T05:39:11.635Z,95276.72
2023-01-21T05:41:39.289Z,95276.84
2023-01-21T05:44:07.209Z,95270.69
2023-01-21T05:46:34.801Z,95271.50
2023-01-21T05:49:02.608Z,95271.63
2023-01-21T05:51:31.573Z,95273.28
2023-01-21T05:53:59.232Z,95281.28
2023-01-21T05:56:26.900Z,95289.91
2023-01-21T05:58:54.547Z,95288.13
2023-01-21T06:01:22.212Z,95288.94
2023-01-21T06:03:49.894Z,95286.34
2023-01-21T06:06:17.572Z,95292.38
2023-01-21T06:08:46.597Z,95287.16
2023-01-21T06:11:14.252Z,95290.72
2023-01-21T06:13:41.867Z,95291.56
2023-01-21T06:16:09.588Z,95289.91
2023-01-21T06:18:37.273Z,95289.91
2023-01-21T06:21:05.152Z,95294.16
2023-01-21T06:23:32.790Z,95296.78
2023-01-21T06:26:02.344Z,95292.38
2023-01-21T06:28:31.092Z,95292.22
2023-01-21T06:30:58.962Z,95299.38
2023-01-21T06:33:26.738Z,95307.22
2023-01-21T06:35:54.366Z,95304.63
2023-01-21T06:38:22.021Z,95309.84
2023-01-21T06:40:49.699Z,95314.22
2023-01-21T06:43:18.682Z,95319.28
2023-01-21T06:45:46.523Z,95312.44
2023-01-21T06:48:14.200Z,95320.28
2023-01-21T06:50:41.894Z,95322.06
2023-01-21T06:53:09.566Z,95320.28
2023-01-21T06:55:37.262Z,95324.66
2023-01-21T06:58:04.992Z,95328.09
2023-01-21T07:00:34.010Z,95324.66
2023-01-21T07:03:02.056Z,95324.66
2023-01-21T07:05:30.079Z,95329.06
2023-01-21T07:07:58.581Z,95329.06
2023-01-21T07:10:26.823Z,95322.88
2023-01-21T07:12:54.626Z,95326.44
2023-01-21T07:15:22.322Z,95327.28
2023-01-21T07:17:52.237Z,95337.44
2023-01-21T07:20:21.795Z,95343.63
2023-01-21T07:22:49.466Z,95340.19
2023-01-21T07:25:17.457Z,95345.53
2023-01-21T07:27:45.287Z,95343.91
2023-01-21T07:30:17.381Z,95343.91
2023-01-21T07:32:45.278Z,95345.69
2023-01-21T07:35:14.515Z,95337.03
2023-01-21T07:37:42.321Z,95348.31
2023-01-21T07:40:10.974Z,95348.31
2023-01-21T07:42:39.219Z,95348.16
2023-01-21T07:45:07.937Z,95352.44
2023-01-21T07:47:35.597Z,95349.00
2023-01-21T07:50:08.490Z,95351.59
2023-01-21T07:52:37.641Z,95348.00
2023-01-21T07:55:05.998Z,95355.03
2023-01-21T07:57:33.817Z,95350.63
2023-01-21T08:00:01.600Z,95350.50
2023-01-21T08:02:29.448Z,95348.84
2023-01-21T08:04:57.428Z,95354.06
2023-01-21T08:07:25.274Z,95366.28
2023-01-21T08:09:54.691Z,95361.22
2023-01-21T08:12:22.463Z,95363.00
2023-01-21T08:14:50.143Z,95358.59
2023-01-21T08:17:17.776Z,95361.22
2023-01-21T08:19:45.521Z,95358.59
2023-01-21T08:22:13.169Z,95366.44
2023-01-21T08:24:40.770Z,95359.59
2023-01-21T08:27:09.920Z,95360.38
2023-01-21T08:29:37.571Z,95364.81
2023-01-21T08:32:05.394Z,95363.97
2023-01-21T08:34:33.654Z,95364.81
2023-01-21T08:37:01.279Z,95358.88
2023-01-21T08:39:28.888Z,95362.31
2023-01-21T08:41:56.480Z,95366.59
2023-01-21T08:44:25.574Z,95365.91
2023-01-21T08:46:53.203Z,95362.31
2023-01-21T08:49:22.593Z,95370.97
2023-01-21T08:51:51.022Z,95371.81
2023-01-21T08:54:18.653Z,95372.75
2023-01-21T08:56:46.297Z,95375.38
2023-01-21T08:59:13.920Z,95374.41
2023-01-21T09:01:43.573Z,95378.66
2023-01-21T09:04:11.225Z,95379.47
2023-01-21T09:06:38.831Z,95385.97
2023-01-21T09:09:06.455Z,95383.25
2023-01-21T09:11:34.708Z,95392.69
2023-01-21T09:14:04.059Z,95394.25
2023-01-21T09:16:32.472Z,95397.38
2023-01-21T09:19:01.616Z,95385.47
2023-01-21T09:21:29.743Z,95404.16
2023-01-21T09:23:57.534Z,95392.72
2023-01-21T09:26:25.459Z,95395.34
2023-01-21T09:28:55.551Z,95390.00
2023-01-21T09:31:25.179Z,95394.41
2023-01-21T09:33:55.038Z,95393.59
2023-01-21T09:36:26.016Z,95404.84
2023-01-21T09:38:54.039Z,95400.56
2023-01-21T09:41:27.573Z,95398.94
2023-01-21T09:44:02.825Z,95403.31
2023-01-21T09:46:39.831Z,95399.09
2023-01-21T09:49:14.259Z,95400.56
2023-01-21T09:51:51.367Z,95394.81
2023-01-21T09:54:28.130Z,95396.75
2023-01-21T09:57:11.473Z,95393.59
2023-01-21T09:59:52.264Z,95395.50
2023-01-21T10:02:29.656Z,95389.63
2023-01-21T10:05:19.807Z,95394.81
2023-01-21T10:07:56.744Z,95386.31
2023-01-21T10:10:29.959Z,95388.22
2023-01-21T10:13:15.328Z,95386.84
2023-01-21T10:15:53.889Z,95387.38
2023-01-21T10:18:30.532Z,95376.50
2023-01-21T10:21:04.905Z,95383.13
2023-01-21T10:23:39.145Z,95378.59
2023-01-21T10:26:09.929Z,95379.25
2023-01-21T10:28:40.471Z,95386.94
2023-01-21T10:31:15.578Z,95380.78
2023-01-21T10:33:44.241Z,95372.78
2023-01-21T10:36:28.016Z,95384.84
2023-01-21T10:39:08.202Z,95373.63
2023-01-21T10:41:52.887Z,95376.06
2023-01-21T10:44:30.193Z,95373.47
2023-01-21T10:47:10.118Z,95376.78
2023-01-21T10:50:09.320Z,95374.34
2023-01-21T10:52:56.445Z,95373.34
2023-01-21T10:55:46.833Z,95371.56
2023-01-21T10:58:28.338Z,95370.63
2023-01-21T11:01:07.753Z,95368.81
2023-01-21T11:03:43.512Z,95368.00
2023-01-21T11:06:17.215Z,95368.00
2023-01-21T11:08:51.985Z,95363.47
2023-01-21T11:11:32.508Z,95356.44
2023-01-21T11:14:07.858Z,95362.63
2023-01-21T11:16:49.243Z,95361.81
2023-01-21T11:19:25.128Z,95364.25
2023-01-21T11:22:08.932Z,95360.84
2023-01-21T11:24:50.211Z,95354.81
2023-01-21T11:27:34.891Z,95354.66
2023-01-21T11:30:31.486Z,95351.22
2023-01-21T11:33:23.855Z,95345.19
2023-01-21T11:35:56.041Z,95353.72
2023-01-21T11:38:39.967Z,95347.66
2023-01-21T11:41:19.752Z,95344.91
2023-01-21T11:44:17.539Z,95343.94
2023-01-21T11:46:52.517Z,95333.50
2023-01-21T11:49:34.929Z,95329.13
2023-01-21T11:52:22.352Z,95327.31
2023-01-21T11:54:50.027Z,95330.75
2023-01-21T11:57:31.187Z,95333.34
2023-01-21T12:00:07.618Z,95332.53
2023-01-21T12:02:40.637Z,95328.13
2023-01-21T12:05:15.817Z,95326.50
2023-01-21T12:07:44.381Z,95323.06
2023-01-21T12:10:25.346Z,95324.69
2023-01-21T12:13:20.098Z,95320.31
2023-01-21T12:16:19.583Z,95311.66
2023-01-21T12:19:16.529Z,95318.69
2023-01-21T12:22:00.504Z,95310.84
2023-01-21T12:24:40.024Z,95318.53
2023-01-21T12:27:20.889Z,95309.03
2023-01-21T12:30:00.923Z,95307.25
2023-01-21T12:32:37.481Z,95306.44
2023-01-21T12:35:12.861Z,95313.47
2023-01-21T12:37:50.559Z,95307.41
2023-01-21T12:46:03.957Z,95313.31
2023-01-21T12:48:39.186Z,95306.31
2023-01-21T12:51:13.206Z,95312.31
2023-01-21T12:53:46.345Z,95319.34
2023-01-21T12:56:23.479Z,95319.34
2023-01-21T12:58:56.203Z,95314.13
2023-01-21T13:01:40.932Z,95314.13
2023-01-21T13:04:25.363Z,95316.75
2023-01-21T13:07:00.525Z,95310.69
2023-01-21T13:09:35.929Z,95315.91
2023-01-21T13:12:10.882Z,95313.31
2023-01-21T13:14:42.043Z,95315.91
2023-01-21T13:17:17.335Z,95316.75
2023-01-21T13:19:46.411Z,95318.53
2023-01-21T13:22:27.067Z,95319.34
2023-01-21T13:25:04.893Z,95322.75
2023-01-21T13:27:43.153Z,95310.53
2023-01-21T13:30:24.550Z,95310.69
2023-01-21T13:33:00.853Z,95321.13
2023-01-21T13:35:38.836Z,95325.38
2023-01-21T13:38:18.577Z,95327.03
2023-01-21T13:40:54.511Z,95325.25
2023-01-21T13:43:54.197Z,95327.03
2023-01-21T13:46:44.921Z,95331.41
2023-01-21T13:49:39.930Z,95340.06
2023-01-21T13:52:14.016Z,95337.47
2023-01-21T13:55:02.601Z,95334.84
2023-01-21T13:57:45.949Z,95336.63
2023-01-21T14:00:18.761Z,95341.03
2023-01-21T14:02:52.322Z,95333.19
2023-01-21T14:05:24.937Z,95341.84
2023-01-21T14:07:58.438Z,95339.25
2023-01-21T14:10:30.601Z,95335.00
2023-01-21T14:13:25.905Z,95335.81
2023-01-21T14:16:09.690Z,95344.47
2023-01-21T14:18:51.687Z,95346.13
2023-01-21T14:21:44.728Z,95347.91
2023-01-21T14:24:28.011Z,95350.38
2023-01-21T14:27:13.299Z,95347.75
2023-01-21T14:29:46.670Z,95351.19
2023-01-21T14:32:20.375Z,95351.88
2023-01-21T14:35:01.048Z,95351.03
2023-01-21T14:37:33.838Z,95350.91
2023-01-21T14:40:15.133Z,95357.09
2023-01-21T14:42:46.289Z,95352.84
2023-01-21T14:45:15.658Z,95365.75
2023-01-21T14:47:50.464Z,95354.47
2023-01-21T14:50:47.741Z,95355.31
2023-01-21T14:53:22.439Z,95364.91
2023-01-21T14:56:16.011Z,95374.41
2023-01-21T14:58:47.503Z,95369.31
2023-01-21T15:01:31.317Z,95364.91
2023-01-21T15:04:00.624Z,95365.06
2023-01-21T15:06:28.344Z,95360.69
2023-01-21T15:09:00.459Z,95370.16
2023-01-21T15:11:35.175Z,95369.31
2023-01-21T15:14:11.341Z,95366.69
2023-01-21T15:16:40.300Z,95371.81
2023-01-21T15:19:31.271Z,95369.19
2023-01-21T15:22:38.838Z,95370.97
2023-01-21T15:25:34.314Z,95374.41
2023-01-21T15:28:40.329Z,95384.84
2023-01-21T15:31:10.740Z,95380.47
2023-01-21T15:33:45.577Z,95372.63
2023-01-21T15:36:24.335Z,95375.25
2023-01-21T15:38:54.065Z,95372.63
2023-01-21T15:41:28.843Z,95375.25
2023-01-21T15:44:23.510Z,95383.06
2023-01-21T15:47:00.389Z,95387.47
2023-01-21T15:49:52.140Z,95380.59
2023-01-21T15:52:34.128Z,95388.41
2023-01-21T15:55:18.623Z,95382.38
2023-01-21T15:57:53.371Z,95388.41
2023-01-21T16:00:32.490Z,95391.03
2023-01-21T16:03:11.447Z,95391.84
2023-01-21T16:05:48.525Z,95397.91
2023-01-21T16:08:26.307Z,95404.91
2023-01-21T16:11:07.814Z,95397.91
2023-01-21T16:13:47.925Z,95404.06
2023-01-21T16:16:28.273Z,95402.44
2023-01-21T16:19:00.150Z,95399.84
2023-01-21T16:21:32.285Z,95405.84
2023-01-21T16:24:04.598Z,95413.56
2023-01-21T16:26:33.259Z,95411.91
2023-01-21T16:29:00.908Z,95417.13
2023-01-21T16:31:30.051Z,95412.06
2023-01-21T16:33:57.795Z,95419.88
2023-01-21T16:36:25.526Z,95421.53
2023-01-21T16:38:53.276Z,95424.13
2023-01-21T16:41:24.220Z,95422.34
2023-01-21T16:43:54.671Z,95418.91
2023-01-21T16:46:25.716Z,95419.06
2023-01-21T16:48:57.377Z,95421.53
2023-01-21T16:51:29.739Z,95427.56
2023-01-21T16:54:25.613Z,95431.97
2023-01-21T16:56:57.092Z,95425.94
2023-01-21T16:59:28.571Z,95431.97
2023-01-21T17:01:57.983Z,95426.75
2023-01-21T17:04:27.129Z,95428.56
2023-01-21T17:06:54.898Z,95432.94
2023-01-21T17:09:31.782Z,95437.19
2023-01-21T17:12:04.760Z,95434.72
2023-01-21T17:14:34.151Z,95439.00
2023-01-21T17:17:05.087Z,95439.78
2023-01-21T17:19:37.360Z,95445.84
2023-01-21T17:22:14.230Z,95450.22
2023-01-21T17:24:54.646Z,95443.38
2023-01-21T17:27:23.335Z,95441.59
2023-01-21T17:29:51.577Z,95439.09
2023-01-21T17:32:27.167Z,95449.44
2023-01-21T17:35:12.249Z,95448.59
2023-01-21T17:37:45.383Z,95441.72
2023-01-21T17:40:25.402Z,95452.16
2023-01-21T17:42:53.420Z,95457.38
2023-01-21T17:45:28.987Z,95455.59
2023-01-21T17:48:14.666Z,95457.38
2023-01-21T17:50:47.548Z,95462.59
2023-01-21T17:53:22.649Z,95465.22
2023-01-21T17:55:58.702Z,95460.81
2023-01-21T17:58:45.730Z,95463.44
2023-01-21T18:01:14.025Z,95470.44
2023-01-21T18:03:41.721Z,95472.09
2023-01-21T18:06:18.338Z,95472.09
2023-01-21T18:08:45.992Z,95472.25
2023-01-21T18:11:16.635Z,95472.25
2023-01-21T18:13:44.606Z,95466.88
2023-01-21T18:16:12.303Z,95466.88
2023-01-21T18:18:40.921Z,95470.31
2023-01-21T18:21:19.002Z,95469.34
2023-01-21T18:23:46.769Z,95476.34
2023-01-21T18:26:21.164Z,95475.53
2023-01-21T18:28:48.792Z,95472.91
2023-01-21T18:31:16.560Z,95476.47
2023-01-21T18:33:44.329Z,95472.91
2023-01-21T18:36:13.343Z,95484.31
2023-01-21T18:38:40.983Z,95478.25
2023-01-21T18:41:09.573Z,95474.84
2023-01-21T18:43:37.205Z,95485.16
2023-01-21T18:46:09.889Z,95480.88
2023-01-21T18:48:37.529Z,95491.31
2023-01-21T18:51:05.684Z,95485.16
2023-01-21T18:53:34.718Z,95483.47
2023-01-21T18:56:02.416Z,95482.69
2023-01-21T18:58:30.079Z,95488.69
2023-01-21T19:00:57.755Z,95492.97
2023-01-21T19:03:25.478Z,95492.16
2023-01-21T19:05:53.102Z,95485.97
2023-01-21T19:08:24.787Z,95487.75
2023-01-21T19:10:53.858Z,95491.19
2023-01-21T19:13:21.970Z,95491.19
2023-01-21T19:15:50.465Z,95490.38
2023-01-21T19:18:18.323Z,95485.16
2023-01-21T19:20:45.974Z,95486.91
2023-01-21T19:23:16.514Z,95485.16
2023-01-21T19:25:48.187Z,95489.53
2023-01-21T19:28:17.332Z,95490.38
2023-01-21T19:30:45.937Z,95484.31
2023-01-21T19:33:13.862Z,95486.09
2023-01-21T19:35:44.885Z,95488.69
2023-01-21T19:38:16.222Z,95491.19
2023-01-21T19:40:44.073Z,95492.97
2023-01-21T19:43:14.037Z,95492.97
2023-01-21T19:45:43.507Z,95495.59
2023-01-21T19:48:13.140Z,95494.75
2023-01-21T19:50:41.574Z,95492.16
2023-01-21T19:53:11.184Z,95497.38
2023-01-21T19:55:40.919Z,95494.75
2023-01-21T19:58:15.029Z,95491.31
2023-01-21T20:00:44.033Z,95498.19
2023-01-21T20:03:12.961Z,95494.75
2023-01-21T20:05:41.185Z,95502.44
2023-01-21T20:08:12.320Z,95502.31
2023-01-21T20:10:40.048Z,95503.16
2023-01-21T20:13:13.698Z,95505.59
2023-01-21T20:15:44.770Z,95504.78
2023-01-21T20:18:18.151Z,95499.72
2023-01-21T20:20:46.050Z,95504.09
2023-01-21T20:23:15.531Z,95503.25
2023-01-21T20:25:44.934Z,95503.41
2023-01-21T20:28:18.489Z,95501.75
2023-01-21T20:30:48.560Z,95511.41
2023-01-21T20:33:17.939Z,95507.94
2023-01-21T20:35:45.684Z,95510.56
2023-01-21T20:38:15.940Z,95512.34
2023-01-21T20:40:43.803Z,95506.16
2023-01-21T20:43:11.690Z,95515.78
2023-01-21T20:45:43.263Z,95511.41
2023-01-21T20:48:19.879Z,95512.19
2023-01-21T20:50:48.185Z,95506.16
2023-01-21T20:53:16.392Z,95510.41
2023-01-21T20:55:46.666Z,95510.41
2023-01-21T20:58:15.021Z,95512.88
2023-01-21T21:00:44.124Z,95500.81
2023-01-21T21:03:13.801Z,95498.19
2023-01-21T21:05:41.548Z,95500.94
2023-01-21T21:08:14.642Z,95497.38
2023-01-21T21:10:42.348Z,95505.19
2023-01-21T21:13:10.402Z,95499.13
2023-01-21T21:15:38.907Z,95501.63
2023-01-21T21:18:06.923Z,95499.97
2023-01-21T21:20:39.822Z,95507.81
2023-01-21T21:23:08.486Z,95515.63
2023-01-21T21:25:41.991Z,95504.38
2023-01-21T21:28:10.975Z,95507.81
2023-01-21T21:30:38.794Z,95506.97
2023-01-21T21:33:07.641Z,95509.59
2023-01-21T21:35:39.729Z,95510.41
2023-01-21T21:38:10.999Z,95512.34
2023-01-21T21:40:38.925Z,95508.78
2023-01-21T21:43:24.224Z,95510.56
2023-01-21T21:46:06.076Z,95508.78
2023-01-21T21:48:41.839Z,95507.81
2023-01-21T21:51:12.637Z,95514.00
2023-01-21T21:53:41.424Z,95506.16
2023-01-21T21:56:10.913Z,95500.94
2023-01-21T21:58:38.722Z,95499.13
2023-01-21T22:01:11.872Z,95507.13
2023-01-21T22:03:40.405Z,95505.34
2023-01-21T22:06:10.432Z,95503.56
2023-01-21T22:08:40.012Z,95507.94
2023-01-21T22:11:10.093Z,95495.84
2023-01-21T22:13:40.306Z,95504.50
2023-01-21T22:16:12.661Z,95499.28
2023-01-21T22:18:40.512Z,95491.47
2023-01-21T22:21:12.262Z,95487.91
2023-01-21T22:23:40.195Z,95491.47
2023-01-21T22:26:12.954Z,95489.81
2023-01-21T22:28:41.845Z,95485.41
2023-01-21T22:31:11.554Z,95497.50
2023-01-21T22:33:39.602Z,95501.06
2023-01-21T22:36:09.451Z,95496.69
2023-01-21T22:38:40.651Z,95504.50
2023-01-21T22:41:10.215Z,95496.69
2023-01-21T22:43:41.781Z,95500.13
2023-01-21T22:46:12.047Z,95504.50
2023-01-21T22:48:41.426Z,95492.28
2023-01-21T22:51:12.972Z,95496.69
2023-01-21T22:53:43.880Z,95494.91
2023-01-21T22:56:12.946Z,95498.34
2023-01-21T22:58:40.694Z,95494.06
2023-01-21T23:01:09.576Z,95495.84
2023-01-21T23:03:38.271Z,95495.84
2023-01-21T23:06:07.293Z,95499.28
2023-01-21T23:08:36.936Z,95489.81
2023-01-21T23:11:08.392Z,95498.47
2023-01-21T23:13:36.603Z,95493.38
2023-01-21T23:16:07.542Z,95495.03
2023-01-21T23:18:36.264Z,95487.34
2023-01-21T23:21:07.138Z,95495.84
2023-01-21T23:23:37.322Z,95492.41
2023-01-21T23:26:09.157Z,95493.38
2023-01-21T23:28:37.514Z,95487.19
2023-01-21T23:31:06.627Z,95490.78
2023-01-21T23:33:34.681Z,95507.28
2023-01-21T23:36:02.321Z,95498.59
2023-01-21T23:38:30.450Z,95503.84
2023-01-21T23:40:58.729Z,95497.78
2023-01-21T23:43:28.387Z,95496.84
2023-01-21T23:45:56.035Z,95489.13
2023-01-21T23:48:24.589Z,95486.50
2023-01-21T23:50:52.325Z,95484.72
2023-01-21T23:53:19.995Z,95482.13
2023-01-21T23:55:47.602Z,95486.50
2023-01-21T23:58:15.271Z,95489.13
